sensor_id;sensor_type;location;lat;lon;timestamp;pressure;altitude;pressure_sealevel;temperature;humidity
11347;BME280;5728;42.722;23.258;2023-10-09T00:01:51;95250.75;;;18.23;64.41
11347;BME280;5728;42.722;23.258;2023-10-09T00:04:18;95246.53;;;18.19;64.48
11347;BME280;5728;42.722;23.258;2023-10-09T00:06:46;95249.28;;;18.16;64.55
11347;BME280;5728;42.722;23.258;2023-10-09T00:09:14;95248.59;;;18.11;64.57
11347;BME280;5728;42.722;23.258;2023-10-09T00:11:52;95258.47;;;18.05;64.92
11347;BME280;5728;42.722;23.258;2023-10-09T00:14:23;95252.09;;;18.10;64.59
11347;BME280;5728;42.722;23.258;2023-10-09T00:16:50;95255.97;;;18.00;64.82
11347;BME280;5728;42.722;23.258;2023-10-09T00:19:22;95258.16;;;17.89;65.26
11347;BME280;5728;42.722;23.258;2023-10-09T00:21:56;95246.69;;;17.92;65.15
11347;BME280;5728;42.722;23.258;2023-10-09T00:24:28;95252.84;;;17.91;65.03
11347;BME280;5728;42.722;23.258;2023-10-09T00:26:57;95246.28;;;17.79;65.12
11347;BME280;5728;42.722;23.258;2023-10-09T00:29:37;95246.28;;;17.79;65.48
11347;BME280;5728;42.722;23.258;2023-10-09T00:32:10;95224.69;;;17.71;65.74
11347;BME280;5728;42.722;23.258;2023-10-09T00:34:48;95237.19;;;17.64;65.93
11347;BME280;5728;42.722;23.258;2023-10-09T00:37:17;95225.56;;;17.45;66.13
11347;BME280;5728;42.722;23.258;2023-10-09T00:39:48;95231.69;;;17.46;66.00
11347;BME280;5728;42.722;23.258;2023-10-09T00:42:22;95242.28;;;17.43;66.16
11347;BME280;5728;42.722;23.258;2023-10-09T00:44:55;95260.59;;;17.44;66.14
11347;BME280;5728;42.722;23.258;2023-10-09T00:47:22;95261.56;;;17.42;66.15
11347;BME280;5728;42.722;23.258;2023-10-09T00:49:54;95255.16;;;17.24;66.36
11347;BME280;5728;42.722;23.258;2023-10-09T00:52:28;95245.03;;;17.13;66.23
11347;BME280;5728;42.722;23.258;2023-10-09T00:55:00;95247.22;;;16.99;66.69
11347;BME280;5728;42.722;23.258;2023-10-09T00:57:37;95261.34;;;16.95;66.44
11347;BME280;5728;42.722;23.258;2023-10-09T01:00:07;95273.81;;;16.87;66.94
11347;BME280;5728;42.722;23.258;2023-10-09T01:02:49;95269.75;;;16.79;66.82
11347;BME280;5728;42.722;23.258;2023-10-09T01:05:18;95274.28;;;16.74;66.52
11347;BME280;5728;42.722;23.258;2023-10-09T01:07:47;95278.91;;;16.64;66.96
11347;BME280;5728;42.722;23.258;2023-10-09T01:10:15;95278.06;;;16.64;66.99
11347;BME280;5728;42.722;23.258;2023-10-09T01:12:45;95277.66;;;16.48;67.06
11347;BME280;5728;42.722;23.258;2023-10-09T01:15:20;95295.25;;;16.43;67.41
11347;BME280;5728;42.722;23.258;2023-10-09T01:18:02;95309.38;;;16.37;67.32
11347;BME280;5728;42.722;23.258;2023-10-09T01:20:33;95297.41;;;16.29;67.68
11347;BME280;5728;42.722;23.258;2023-10-09T01:23:10;95313.31;;;16.21;67.85
11347;BME280;5728;42.722;23.258;2023-10-09T01:25:37;95302.19;;;16.15;67.90
11347;BME280;5728;42.722;23.258;2023-10-09T01:28:10;95292.00;;;16.06;68.33
11347;BME280;5728;42.722;23.258;2023-10-09T01:30:41;95283.22;;;16.07;68.28
11347;BME280;5728;42.722;23.258;2023-10-09T01:33:08;95271.22;;;16.00;68.72
11347;BME280;5728;42.722;23.258;2023-10-09T01:35:48;95296.78;;;15.90;69.06
11347;BME280;5728;42.722;23.258;2023-10-09T01:38:17;95307.25;;;15.88;69.09
11347;BME280;5728;42.722;23.258;2023-10-09T01:40:56;95319.53;;;15.86;68.61
11347;BME280;5728;42.722;23.258;2023-10-09T01:43:30;95315.22;;;15.85;68.16
11347;BME280;5728;42.722;23.258;2023-10-09T01:45:59;95319.06;;;15.72;68.15
11347;BME280;5728;42.722;23.258;2023-10-09T01:48:27;95308.81;;;15.63;68.27
11347;BME280;5728;42.722;23.258;2023-10-09T01:50:55;95328.09;;;15.59;68.43
11347;BME280;5728;42.722;23.258;2023-10-09T01:53:23;95319.47;;;15.57;68.11
11347;BME280;5728;42.722;23.258;2023-10-09T01:55:54;95341.03;;;15.65;67.78
11347;BME280;5728;42.722;23.258;2023-10-09T01:58:21;95344.06;;;15.49;68.09
11347;BME280;5728;42.722;23.258;2023-10-09T02:00:53;95323.28;;;15.43;68.15
11347;BME280;5728;42.722;23.258;2023-10-09T02:03:22;95324.69;;;15.22;69.25
11347;BME280;5728;42.722;23.258;2023-10-09T02:05:50;95327.66;;;15.07;69.79
11347;BME280;5728;42.722;23.258;2023-10-09T02:08:16;95337.34;;;15.02;70.19
11347;BME280;5728;42.722;23.258;2023-10-09T02:10:48;95349.63;;;14.98;70.38
11347;BME280;5728;42.722;23.258;2023-10-09T02:13:15;95354.88;;;14.97;70.44
11347;BME280;5728;42.722;23.258;2023-10-09T02:15:43;95360.09;;;14.97;70.58
11347;BME280;5728;42.722;23.258;2023-10-09T02:18:24;95354.41;;;14.80;70.95
11347;BME280;5728;42.722;23.258;2023-10-09T02:21:06;95363.06;;;14.82;71.32
11347;BME280;5728;42.722;23.258;2023-10-09T02:23:40;95369.38;;;14.72;71.51
11347;BME280;5728;42.722;23.258;2023-10-09T02:26:14;95376.16;;;14.80;71.24
11347;BME280;5728;42.722;23.258;2023-10-09T02:28:48;95390.16;;;14.78;71.58
11347;BME280;5728;42.722;23.258;2023-10-09T02:31:24;95393.53;;;14.81;71.37
11347;BME280;5728;42.722;23.258;2023-10-09T02:34:01;95400.00;;;14.63;71.68
11347;BME280;5728;42.722;23.258;2023-10-09T02:36:30;95376.00;;;14.46;72.16
11347;BME280;5728;42.722;23.258;2023-10-09T02:38:57;95380.41;;;14.43;72.50
11347;BME280;5728;42.722;23.258;2023-10-09T02:41:25;95386.56;;;14.40;72.88
11347;BME280;5728;42.722;23.258;2023-10-09T02:43:58;95372.75;;;14.37;73.14
11347;BME280;5728;42.722;23.258;2023-10-09T02:46:35;95374.75;;;14.21;73.35
11347;BME280;5728;42.722;23.258;2023-10-09T02:49:05;95362.59;;;14.20;73.24
11347;BME280;5728;42.722;23.258;2023-10-09T02:51:35;95371.31;;;14.19;73.39
11347;BME280;5728;42.722;23.258;2023-10-09T02:54:07;95374.97;;;14.11;73.27
11347;BME280;5728;42.722;23.258;2023-10-09T02:56:45;95381.91;;;14.10;73.29
11347;BME280;5728;42.722;23.258;2023-10-09T02:59:20;95396.72;;;14.10;73.59
11347;BME280;5728;42.722;23.258;2023-10-09T03:01:48;95390.88;;;13.97;73.61
11347;BME280;5728;42.722;23.258;2023-10-09T03:04:14;95399.69;;;13.90;74.01
11347;BME280;5728;42.722;23.258;2023-10-09T03:06:41;95403.97;;;13.94;73.92
11347;BME280;5728;42.722;23.258;2023-10-09T03:09:15;95403.91;;;13.97;73.46
11347;BME280;5728;42.722;23.258;2023-10-09T03:11:54;95407.44;;;13.93;73.11
11347;BME280;5728;42.722;23.258;2023-10-09T03:14:27;95401.41;;;13.91;73.35
11347;BME280;5728;42.722;23.258;2023-10-09T03:16:55;95408.69;;;13.74;74.05
11347;BME280;5728;42.722;23.258;2023-10-09T03:19:25;95404.34;;;13.73;73.82
11347;BME280;5728;42.722;23.258;2023-10-09T03:21:52;95403.41;;;13.77;74.27
11347;BME280;5728;42.722;23.258;2023-10-09T03:24:19;95414.94;;;13.62;73.99
11347;BME280;5728;42.722;23.258;2023-10-09T03:26:48;95424.69;;;13.50;74.24
11347;BME280;5728;42.722;23.258;2023-10-09T03:29:16;95431.94;;;13.34;74.84
11347;BME280;5728;42.722;23.258;2023-10-09T03:31:45;95426.81;;;13.28;74.99
11347;BME280;5728;42.722;23.258;2023-10-09T03:34:12;95437.13;;;13.34;74.83
11347;BME280;5728;42.722;23.258;2023-10-09T03:36:39;95440.69;;;13.27;74.80
11347;BME280;5728;42.722;23.258;2023-10-09T03:39:06;95453.75;;;13.25;75.03
11347;BME280;5728;42.722;23.258;2023-10-09T03:41:49;95440.25;;;13.56;73.85
11347;BME280;5728;42.722;23.258;2023-10-09T03:44:17;95443.09;;;13.40;73.63
11347;BME280;5728;42.722;23.258;2023-10-09T03:46:45;95444.72;;;13.48;73.50
11347;BME280;5728;42.722;23.258;2023-10-09T03:49:12;95448.16;;;13.51;73.86
11347;BME280;5728;42.722;23.258;2023-10-09T03:51:48;95448.34;;;13.39;73.67
11347;BME280;5728;42.722;23.258;2023-10-09T03:54:15;95441.44;;;13.36;73.56
11347;BME280;5728;42.722;23.258;2023-10-09T03:56:45;95447.44;;;13.41;73.27
11347;BME280;5728;42.722;23.258;2023-10-09T03:59:15;95457.53;;;13.03;74.16
11347;BME280;5728;42.722;23.258;2023-10-09T04:01:44;95462.72;;;13.02;74.32
11347;BME280;5728;42.722;23.258;2023-10-09T04:04:11;95460.97;;;13.05;74.58
11347;BME280;5728;42.722;23.258;2023-10-09T04:06:40;95465.19;;;13.15;73.52
11347;BME280;5728;42.722;23.258;2023-10-09T04:09:08;95461.97;;;12.95;74.09
11347;BME280;5728;42.722;23.258;2023-10-09T04:11:54;95463.78;;;12.90;74.35
11347;BME280;5728;42.722;23.258;2023-10-09T04:14:39;95458.31;;;13.11;73.71
11347;BME280;5728;42.722;23.258;2023-10-09T04:17:16;95451.50;;;12.98;73.24
11347;BME280;5728;42.722;23.258;2023-10-09T04:20:06;95458.63;;;12.84;73.19
11347;BME280;5728;42.722;23.258;2023-10-09T04:23:24;95454.44;;;12.75;73.39
11347;BME280;5728;42.722;23.258;2023-10-09T04:26:00;95460.56;;;12.70;72.78
11347;BME280;5728;42.722;23.258;2023-10-09T04:28:36;95468.19;;;12.85;72.43
11347;BME280;5728;42.722;23.258;2023-10-09T04:31:03;95467.53;;;12.68;71.90
11347;BME280;5728;42.722;23.258;2023-10-09T04:33:33;95481.63;;;12.49;72.65
11347;BME280;5728;42.722;23.258;2023-10-09T04:36:08;95471.22;;;12.49;72.55
11347;BME280;5728;42.722;23.258;2023-10-09T04:38:42;95461.72;;;12.48;72.99
11347;BME280;5728;42.722;23.258;2023-10-09T04:41:21;95466.06;;;12.46;72.45
11347;BME280;5728;42.722;23.258;2023-10-09T04:43:53;95459.06;;;12.51;72.02
11347;BME280;5728;42.722;23.258;2023-10-09T04:46:29;95462.50;;;12.53;71.66
11347;BME280;5728;42.722;23.258;2023-10-09T04:49:10;95466.88;;;12.51;71.88
11347;BME280;5728;42.722;23.258;2023-10-09T04:51:53;95467.53;;;12.68;71.36
11347;BME280;5728;42.722;23.258;2023-10-09T04:54:30;95470.22;;;12.59;71.00
11347;BME280;5728;42.722;23.258;2023-10-09T04:57:05;95469.53;;;12.45;70.91
11347;BME280;5728;42.722;23.258;2023-10-09T04:59:44;95474.69;;;12.51;70.79
11347;BME280;5728;42.722;23.258;2023-10-09T05:02:13;95481.69;;;12.46;70.40
11347;BME280;5728;42.722;23.258;2023-10-09T05:04:47;95482.63;;;12.37;70.33
11347;BME280;5728;42.722;23.258;2023-10-09T05:07:26;95486.63;;;12.67;69.57
11347;BME280;5728;42.722;23.258;2023-10-09T05:10:17;95498.19;;;12.43;69.73
11347;BME280;5728;42.722;23.258;2023-10-09T05:12:45;95496.47;;;12.41;69.70
11347;BME280;5728;42.722;23.258;2023-10-09T05:15:22;95501.50;;;12.54;69.09
11347;BME280;5728;42.722;23.258;2023-10-09T05:17:52;95491.19;;;12.47;68.00
11347;BME280;5728;42.722;23.258;2023-10-09T05:20:23;95498.94;;;12.53;67.30
11347;BME280;5728;42.722;23.258;2023-10-09T05:23:07;95505.81;;;12.57;67.19
11347;BME280;5728;42.722;23.258;2023-10-09T05:25:48;95514.28;;;12.74;66.50
11347;BME280;5728;42.722;23.258;2023-10-09T05:28:24;95515.25;;;12.64;66.82
11347;BME280;5728;42.722;23.258;2023-10-09T05:31:14;95517.13;;;12.54;67.14
11347;BME280;5728;42.722;23.258;2023-10-09T05:34:02;95516.88;;;12.74;66.56
11347;BME280;5728;42.722;23.258;2023-10-09T05:36:33;95528.16;;;12.76;66.09
11347;BME280;5728;42.722;23.258;2023-10-09T05:39:02;95521.28;;;12.69;66.35
11347;BME280;5728;42.722;23.258;2023-10-09T05:41:47;95534.28;;;12.70;65.87
11347;BME280;5728;42.722;23.258;2023-10-09T05:44:25;95542.91;;;12.74;65.70
11347;BME280;5728;42.722;23.258;2023-10-09T05:47:18;95546.19;;;12.90;65.48
11347;BME280;5728;42.722;23.258;2023-10-09T05:49:58;95552.84;;;13.15;64.24
11347;BME280;5728;42.722;23.258;2023-10-09T05:52:50;95560.50;;;13.28;63.97
11347;BME280;5728;42.722;23.258;2023-10-09T05:55:31;95549.00;;;13.43;63.27
11347;BME280;5728;42.722;23.258;2023-10-09T05:58:29;95560.94;;;13.58;62.54
11347;BME280;5728;42.722;23.258;2023-10-09T06:01:14;95566.88;;;13.69;61.51
11347;BME280;5728;42.722;23.258;2023-10-09T06:04:10;95572.13;;;13.66;61.75
11347;BME280;5728;42.722;23.258;2023-10-09T06:06:43;95576.16;;;13.86;60.56
11347;BME280;5728;42.722;23.258;2023-10-09T06:09:14;95579.00;;;13.71;60.28
11347;BME280;5728;42.722;23.258;2023-10-09T06:12:15;95573.53;;;13.88;58.74
11347;BME280;5728;42.722;23.258;2023-10-09T06:15:14;95576.69;;;14.08;58.33
11347;BME280;5728;42.722;23.258;2023-10-09T06:18:17;95581.56;;;14.28;57.18
11347;BME280;5728;42.722;23.258;2023-10-09T06:20:58;95593.81;;;14.24;56.88
11347;BME280;5728;42.722;23.258;2023-10-09T06:24:06;95600.94;;;14.13;57.09
11347;BME280;5728;42.722;23.258;2023-10-09T06:26:42;95593.88;;;14.21;55.81
11347;BME280;5728;42.722;23.258;2023-10-09T06:29:18;95592.50;;;14.52;55.63
11347;BME280;5728;42.722;23.258;2023-10-09T06:32:01;95589.03;;;14.52;56.78
11347;BME280;5728;42.722;23.258;2023-10-09T06:34:58;95612.25;;;14.65;55.70
11347;BME280;5728;42.722;23.258;2023-10-09T06:37:39;95600.84;;;14.71;55.49
11347;BME280;5728;42.722;23.258;2023-10-09T06:40:26;95608.16;;;14.52;54.31
11347;BME280;5728;42.722;23.258;2023-10-09T06:43:10;95616.56;;;14.68;53.18
11347;BME280;5728;42.722;23.258;2023-10-09T06:45:42;95606.38;;;15.02;52.30
11347;BME280;5728;42.722;23.258;2023-10-09T06:48:20;95605.47;;;14.55;52.76
11347;BME280;5728;42.722;23.258;2023-10-09T06:51:07;95590.63;;;14.59;52.51
11347;BME280;5728;42.722;23.258;2023-10-09T06:53:39;95600.84;;;14.73;52.51
11347;BME280;5728;42.722;23.258;2023-10-09T06:56:25;95599.94;;;14.74;52.14
11347;BME280;5728;42.722;23.258;2023-10-09T06:59:13;95594.56;;;14.83;51.61
11347;BME280;5728;42.722;23.258;2023-10-09T07:01:46;95600.94;;;15.12;50.88
11347;BME280;5728;42.722;23.258;2023-10-09T07:04:34;95592.22;;;14.67;50.53
11347;BME280;5728;42.722;23.258;2023-10-09T07:07:15;95587.88;;;15.12;49.23
11347;BME280;5728;42.722;23.258;2023-10-09T07:09:44;95604.31;;;15.17;49.49
11347;BME280;5728;42.722;23.258;2023-10-09T07:12:32;95596.91;;;15.39;48.76
11347;BME280;5728;42.722;23.258;2023-10-09T07:15:00;95604.03;;;15.31;48.65
11347;BME280;5728;42.722;23.258;2023-10-09T07:17:43;95607.72;;;15.21;48.05
11347;BME280;5728;42.722;23.258;2023-10-09T07:20:11;95605.16;;;15.62;48.12
11347;BME280;5728;42.722;23.258;2023-10-09T07:22:42;95606.28;;;15.90;46.07
11347;BME280;5728;42.722;23.258;2023-10-09T07:25:39;95608.44;;;16.09;45.67
11347;BME280;5728;42.722;23.258;2023-10-09T07:28:22;95602.75;;;15.91;47.03
11347;BME280;5728;42.722;23.258;2023-10-09T07:31:08;95603.25;;;15.70;45.21
11347;BME280;5728;42.722;23.258;2023-10-09T07:33:50;95606.53;;;15.78;45.64
11347;BME280;5728;42.722;23.258;2023-10-09T07:36:22;95600.28;;;16.22;44.45
11347;BME280;5728;42.722;23.258;2023-10-09T07:39:05;95609.91;;;16.57;44.69
11347;BME280;5728;42.722;23.258;2023-10-09T07:41:41;95608.09;;;16.24;44.23
11347;BME280;5728;42.722;23.258;2023-10-09T07:44:21;95608.50;;;16.07;44.16
11347;BME280;5728;42.722;23.258;2023-10-09T07:47:02;95597.72;;;16.21;42.63
11347;BME280;5728;42.722;23.258;2023-10-09T07:49:44;95605.81;;;16.09;44.28
11347;BME280;5728;42.722;23.258;2023-10-09T07:52:18;95603.69;;;16.26;41.28
11347;BME280;5728;42.722;23.258;2023-10-09T07:54:49;95602.09;;;16.55;42.25
11347;BME280;5728;42.722;23.258;2023-10-09T07:57:30;95604.03;;;16.47;40.88
11347;BME280;5728;42.722;23.258;2023-10-09T08:00:06;95603.41;;;16.72;41.23
11347;BME280;5728;42.722;23.258;2023-10-09T08:03:00;95608.84;;;16.64;40.58
11347;BME280;5728;42.722;23.258;2023-10-09T08:05:29;95590.75;;;16.89;40.86
11347;BME280;5728;42.722;23.258;2023-10-09T08:08:01;95606.22;;;16.64;39.92
11347;BME280;5728;42.722;23.258;2023-10-09T08:11:01;95599.47;;;17.21;39.54
11347;BME280;5728;42.722;23.258;2023-10-09T08:14:00;95607.06;;;17.31;38.96
11347;BME280;5728;42.722;23.258;2023-10-09T08:16:28;95605.63;;;17.80;38.31
11347;BME280;5728;42.722;23.258;2023-10-09T08:19:02;95613.41;;;17.54;38.73
11347;BME280;5728;42.722;23.258;2023-10-09T08:21:52;95642.72;;;18.55;37.32
11347;BME280;5728;42.722;23.258;2023-10-09T08:24:43;95597.94;;;17.44;38.26
11347;BME280;5728;42.722;23.258;2023-10-09T08:27:19;95597.63;;;17.56;39.06
11347;BME280;5728;42.722;23.258;2023-10-09T08:30:19;95600.34;;;17.82;38.16
11347;BME280;5728;42.722;23.258;2023-10-09T08:32:54;95598.44;;;17.87;37.87
11347;BME280;5728;42.722;23.258;2023-10-09T08:35:28;95594.75;;;17.93;38.04
11347;BME280;5728;42.722;23.258;2023-10-09T08:37:59;95596.38;;;17.69;38.25
11347;BME280;5728;42.722;23.258;2023-10-09T08:40:34;95580.25;;;17.81;35.18
11347;BME280;5728;42.722;23.258;2023-10-09T08:43:09;95579.84;;;18.48;34.40
11347;BME280;5728;42.722;23.258;2023-10-09T08:45:38;95576.44;;;18.46;35.69
11347;BME280;5728;42.722;23.258;2023-10-09T08:48:07;95565.78;;;19.25;34.13
11347;BME280;5728;42.722;23.258;2023-10-09T08:50:40;95563.66;;;19.59;34.36
11347;BME280;5728;42.722;23.258;2023-10-09T08:53:09;95565.50;;;18.59;34.98
11347;BME280;5728;42.722;23.258;2023-10-09T08:55:37;95557.88;;;18.51;34.36
11347;BME280;5728;42.722;23.258;2023-10-09T08:58:05;95558.56;;;19.07;32.90
11347;BME280;5728;42.722;23.258;2023-10-09T09:00:47;95568.94;;;18.34;34.53
11347;BME280;5728;42.722;23.258;2023-10-09T09:03:15;95554.19;;;18.03;35.07
11347;BME280;5728;42.722;23.258;2023-10-09T09:05:45;95585.66;;;18.58;34.21
11347;BME280;5728;42.722;23.258;2023-10-09T09:08:22;95558.47;;;19.10;33.77
11347;BME280;5728;42.722;23.258;2023-10-09T09:10:57;95572.78;;;18.51;34.58
11347;BME280;5728;42.722;23.258;2023-10-09T09:13:38;95574.09;;;18.88;33.39
11347;BME280;5728;42.722;23.258;2023-10-09T09:16:15;95565.50;;;18.85;33.75
11347;BME280;5728;42.722;23.258;2023-10-09T09:18:49;95570.31;;;18.97;33.45
11347;BME280;5728;42.722;23.258;2023-10-09T09:21:22;95571.94;;;19.24;32.95
11347;BME280;5728;42.722;23.258;2023-10-09T09:23:54;95567.25;;;18.84;32.42
11347;BME280;5728;42.722;23.258;2023-10-09T09:26:33;95557.47;;;19.37;32.34
11347;BME280;5728;42.722;23.258;2023-10-09T09:29:04;95575.84;;;18.89;32.33
11347;BME280;5728;42.722;23.258;2023-10-09T09:31:34;95555.78;;;18.87;32.65
11347;BME280;5728;42.722;23.258;2023-10-09T09:34:05;95556.88;;;19.29;31.90
11347;BME280;5728;42.722;23.258;2023-10-09T09:36:54;95547.09;;;18.85;32.87
11347;BME280;5728;42.722;23.258;2023-10-09T09:39:22;95546.16;;;18.86;32.35
11347;BME280;5728;42.722;23.258;2023-10-09T09:41:55;95554.63;;;19.43;31.08
11347;BME280;5728;42.722;23.258;2023-10-09T09:44:33;95539.97;;;19.59;30.63
11347;BME280;5728;42.722;23.258;2023-10-09T09:47:12;95547.41;;;19.71;31.24
11347;BME280;5728;42.722;23.258;2023-10-09T09:49:50;95528.94;;;19.95;30.75
11347;BME280;5728;42.722;23.258;2023-10-09T09:52:26;95539.97;;;20.48;29.46
11347;BME280;5728;42.722;23.258;2023-10-09T09:54:53;95536.72;;;19.98;30.06
11347;BME280;5728;42.722;23.258;2023-10-09T09:57:23;95532.25;;;20.21;28.09
11347;BME280;5728;42.722;23.258;2023-10-09T09:59:53;95501.63;;;19.76;29.16
11347;BME280;5728;42.722;23.258;2023-10-09T10:02:28;95518.22;;;20.21;29.28
11347;BME280;5728;42.722;23.258;2023-10-09T10:05:02;95509.22;;;20.48;27.77
11347;BME280;5728;42.722;23.258;2023-10-09T10:07:32;95518.19;;;20.44;27.24
11347;BME280;5728;42.722;23.258;2023-10-09T10:10:34;95509.72;;;20.36;27.00
11347;BME280;5728;42.722;23.258;2023-10-09T10:13:03;95502.97;;;20.71;28.19
11347;BME280;5728;42.722;23.258;2023-10-09T10:16:04;95497.34;;;20.78;26.83
11347;BME280;5728;42.722;23.258;2023-10-09T10:18:57;95476.28;;;20.78;26.52
11347;BME280;5728;42.722;23.258;2023-10-09T10:21:33;95482.25;;;21.41;26.97
11347;BME280;5728;42.722;23.258;2023-10-09T10:24:40;95467.78;;;21.87;26.12
11347;BME280;5728;42.722;23.258;2023-10-09T10:27:22;95459.75;;;22.24;26.67
11347;BME280;5728;42.722;23.258;2023-10-09T10:30:26;95454.19;;;22.47;25.94
11347;BME280;5728;42.722;23.258;2023-10-09T10:32:56;95433.91;;;21.22;26.67
11347;BME280;5728;42.722;23.258;2023-10-09T10:35:25;95444.63;;;22.28;26.04
11347;BME280;5728;42.722;23.258;2023-10-09T10:38:26;95437.88;;;21.86;26.80
11347;BME280;5728;42.722;23.258;2023-10-09T10:41:13;95430.25;;;22.50;25.97
11347;BME280;5728;42.722;23.258;2023-10-09T10:43:43;95425.63;;;22.54;26.08
11347;BME280;5728;42.722;23.258;2023-10-09T10:46:46;95418.25;;;21.92;26.62
11347;BME280;5728;42.722;23.258;2023-10-09T10:49:18;95412.13;;;21.54;27.31
11347;BME280;5728;42.722;23.258;2023-10-09T10:51:49;95415.31;;;21.79;27.37
11347;BME280;5728;42.722;23.258;2023-10-09T10:54:27;95426.81;;;22.31;27.89
11347;BME280;5728;42.722;23.258;2023-10-09T10:57:17;95405.94;;;23.42;25.09
11347;BME280;5728;42.722;23.258;2023-10-09T10:59:55;95402.88;;;23.65;25.43
11347;BME280;5728;42.722;23.258;2023-10-09T11:02:43;95435.31;;;24.00;24.86
11347;BME280;5728;42.722;23.258;2023-10-09T11:05:09;95412.59;;;23.96;24.54
11347;BME280;5728;42.722;23.258;2023-10-09T11:07:51;95401.47;;;23.27;25.51
11347;BME280;5728;42.722;23.258;2023-10-09T11:10:24;95399.81;;;23.57;24.93
11347;BME280;5728;42.722;23.258;2023-10-09T11:12:58;95390.00;;;24.20;24.72
11347;BME280;5728;42.722;23.258;2023-10-09T11:15:54;95389.56;;;22.36;25.15
11347;BME280;5728;42.722;23.258;2023-10-09T11:18:40;95376.72;;;23.28;24.52
11347;BME280;5728;42.722;23.258;2023-10-09T11:21:13;95365.78;;;23.18;25.49
11347;BME280;5728;42.722;23.258;2023-10-09T11:23:58;95369.53;;;23.77;24.57
11347;BME280;5728;42.722;23.258;2023-10-09T11:26:46;95368.13;;;24.60;23.88
11347;BME280;5728;42.722;23.258;2023-10-09T11:29:19;95355.72;;;24.75;23.80
11347;BME280;5728;42.722;23.258;2023-10-09T11:31:58;95380.31;;;25.21;22.89
11347;BME280;5728;42.722;23.258;2023-10-09T11:34:25;95358.94;;;24.08;24.01
11347;BME280;5728;42.722;23.258;2023-10-09T11:37:01;95356.69;;;24.74;23.66
11347;BME280;5728;42.722;23.258;2023-10-09T11:39:31;95363.91;;;25.00;23.21
11347;BME280;5728;42.722;23.258;2023-10-09T11:42:01;95353.19;;;24.73;23.21
11347;BME280;5728;42.722;23.258;2023-10-09T11:44:37;95342.56;;;24.16;23.81
11347;BME280;5728;42.722;23.258;2023-10-09T11:47:05;95336.44;;;25.01;23.58
11347;BME280;5728;42.722;23.258;2023-10-09T11:49:49;95331.47;;;25.38;22.87
11347;BME280;5728;42.722;23.258;2023-10-09T11:52:22;95335.69;;;24.85;23.13
11347;BME280;5728;42.722;23.258;2023-10-09T11:55:06;95318.78;;;25.69;22.68
11347;BME280;5728;42.722;23.258;2023-10-09T11:57:40;95309.03;;;25.56;22.92
11347;BME280;5728;42.722;23.258;2023-10-09T12:00:08;95301.22;;;25.26;22.28
11347;BME280;5728;42.722;23.258;2023-10-09T12:02:50;95298.13;;;26.39;21.56
11347;BME280;5728;42.722;23.258;2023-10-09T12:05:17;95296.47;;;25.31;21.95
11347;BME280;5728;42.722;23.258;2023-10-09T12:07:45;95284.56;;;25.65;22.05
11347;BME280;5728;42.722;23.258;2023-10-09T12:10:13;95290.66;;;25.12;22.42
11347;BME280;5728;42.722;23.258;2023-10-09T12:12:50;95290.72;;;25.24;22.15
11347;BME280;5728;42.722;23.258;2023-10-09T12:15:17;95295.63;;;24.90;22.18
11347;BME280;5728;42.722;23.258;2023-10-09T12:17:45;95282.03;;;23.94;23.77
11347;BME280;5728;42.722;23.258;2023-10-09T12:20:13;95287.25;;;24.53;22.54
11347;BME280;5728;42.722;23.258;2023-10-09T12:22:57;95277.47;;;24.40;22.39
11347;BME280;5728;42.722;23.258;2023-10-09T12:25:26;95272.09;;;24.98;22.52
11347;BME280;5728;42.722;23.258;2023-10-09T12:27:56;95268.72;;;25.22;22.37
11347;BME280;5728;42.722;23.258;2023-10-09T12:30:24;95270.06;;;25.15;21.80
11347;BME280;5728;42.722;23.258;2023-10-09T12:32:53;95264.31;;;24.24;23.01
11347;BME280;5728;42.722;23.258;2023-10-09T12:35:20;95260.56;;;24.56;22.80
11347;BME280;5728;42.722;23.258;2023-10-09T12:37:50;95249.28;;;25.22;22.26
11347;BME280;5728;42.722;23.258;2023-10-09T12:40:17;95261.00;;;25.98;21.99
11347;BME280;5728;42.722;23.258;2023-10-09T12:42:51;95251.75;;;26.30;21.06
11347;BME280;5728;42.722;23.258;2023-10-09T12:45:19;95249.16;;;24.97;22.49
11347;BME280;5728;42.722;23.258;2023-10-09T12:47:52;95241.78;;;24.45;21.98
11347;BME280;5728;42.722;23.258;2023-10-09T12:50:24;95236.22;;;24.36;23.31
11347;BME280;5728;42.722;23.258;2023-10-09T12:52:55;95238.72;;;25.34;22.10
11347;BME280;5728;42.722;23.258;2023-10-09T12:55:27;95234.66;;;25.82;21.03
11347;BME280;5728;42.722;23.258;2023-10-09T12:57:59;95234.28;;;26.26;21.32
11347;BME280;5728;42.722;23.258;2023-10-09T13:00:29;95226.31;;;26.51;21.34
11347;BME280;5728;42.722;23.258;2023-10-09T13:02:58;95228.22;;;26.49;20.14
11347;BME280;5728;42.722;23.258;2023-10-09T13:05:26;95217.72;;;26.23;20.42
11347;BME280;5728;42.722;23.258;2023-10-09T13:07:53;95211.50;;;25.31;20.18
11347;BME280;5728;42.722;23.258;2023-10-09T13:10:24;95215.03;;;25.31;20.54
11347;BME280;5728;42.722;23.258;2023-10-09T13:12:51;95216.09;;;24.74;20.35
11347;BME280;5728;42.722;23.258;2023-10-09T13:15:23;95206.34;;;24.60;21.06
11347;BME280;5728;42.722;23.258;2023-10-09T13:17:50;95212.47;;;24.34;20.84
11347;BME280;5728;42.722;23.258;2023-10-09T13:20:18;95206.00;;;25.61;19.92
11347;BME280;5728;42.722;23.258;2023-10-09T13:22:47;95202.09;;;25.13;20.05
11347;BME280;5728;42.722;23.258;2023-10-09T13:25:14;95193.09;;;25.42;20.25
11347;BME280;5728;42.722;23.258;2023-10-09T13:27:50;95190.03;;;25.87;20.26
11347;BME280;5728;42.722;23.258;2023-10-09T13:30:18;95191.09;;;25.97;20.70
11347;BME280;5728;42.722;23.258;2023-10-09T13:32:50;95177.34;;;25.00;20.87
11347;BME280;5728;42.722;23.258;2023-10-09T13:35:17;95187.84;;;25.55;20.79
11347;BME280;5728;42.722;23.258;2023-10-09T13:37:45;95176.59;;;25.76;20.21
11347;BME280;5728;42.722;23.258;2023-10-09T13:40:21;95188.81;;;24.86;21.51
11347;BME280;5728;42.722;23.258;2023-10-09T13:42:56;95176.22;;;25.16;21.61
11347;BME280;5728;42.722;23.258;2023-10-09T13:45:25;95181.47;;;25.57;20.83